Time;durP1;ratioP1;P1;durP2;ratioP2;P2;SDS_P1;SDS_P2;PMS_P1;PMS_P2;Temp;Humidity;BMP_temperature;BMP_pressure;BME280_temperature;BME280_humidity;BME280_pressure;Samples;Min_cycle;Max_cycle;Signal;HPM_P1;HPM_P2
2022/08/27 00:03:12;;;;;;;9.93;8.93;;;;;;;19.45;60.30;100233.27;3335883;85;21666;-82
2022/08/27 00:08:05;;;;;;;9.40;8.50;;;;;;;19.40;60.50;100224.16;3332479;84;21002;-82
2022/08/27 00:12:56;;;;;;;10.65;9.70;;;;;;;19.37;60.90;100217.67;3293160;85;21203;-82
2022/08/27 00:17:48;;;;;;;11.80;9.90;;;;;;;19.34;61.00;100213.80;3281620;85;20924;-82
2022/08/27 00:22:39;;;;;;;10.70;9.53;;;;;;;19.31;61.24;100209.91;3319917;84;20959;-82
2022/08/27 00:27:31;;;;;;;10.88;9.88;;;;;;;19.28;61.48;100203.43;3283868;84;20979;-82
2022/08/27 00:32:22;;;;;;;12.73;10.20;;;;;;;19.27;61.65;100200.38;3287179;85;21053;-82
2022/08/27 00:37:13;;;;;;;11.93;10.10;;;;;;;19.21;61.92;100198.77;3350593;83;21127;-82
2022/08/27 00:42:05;;;;;;;10.63;9.53;;;;;;;19.17;62.13;100185.70;3329903;85;21302;-83
2022/08/27 00:47:02;;;;;;;10.70;9.25;;;;;;;19.13;62.34;100190.20;3290417;85;21470;-82
2022/08/27 00:51:58;;;;;;;11.38;9.83;;;;;;;19.09;62.65;100192.97;3259954;85;20994;-82
2022/08/27 00:56:50;;;;;;;9.90;8.93;;;;;;;19.04;62.67;100189.98;3310460;85;20990;-82
2022/08/27 01:06:54;;;;;;;10.18;9.30;;;;;;;18.94;63.23;100197.73;3336773;83;20938;-82
2022/08/27 01:11:46;;;;;;;12.88;9.58;;;;;;;18.89;63.43;100195.67;3293773;85;20986;-82
2022/08/27 01:16:42;;;;;;;11.38;9.70;;;;;;;18.85;63.70;100196.63;3297633;84;21834;-82
2022/08/27 01:21:39;;;;;;;10.53;9.05;;;;;;;18.80;64.07;100185.34;3327070;85;21013;-82
2022/08/27 01:26:31;;;;;;;10.38;9.35;;;;;;;18.76;64.08;100186.30;3264758;85;21178;-82
2022/08/27 01:31:22;;;;;;;15.18;10.05;;;;;;;18.74;64.30;100182.84;3265591;83;21089;-82
2022/08/27 01:36:14;;;;;;;10.88;9.88;;;;;;;18.71;64.40;100181.59;3268664;84;37659;-82
2022/08/27 01:41:06;;;;;;;12.55;9.98;;;;;;;18.65;64.57;100179.56;3225006;85;21003;-82
2022/08/27 01:45:58;;;;;;;12.68;11.45;;;;;;;18.61;64.85;100174.39;3289117;84;21030;-82
2022/08/27 01:50:49;;;;;;;11.35;10.15;;;;;;;18.57;65.10;100178.88;3310551;85;22089;-82
2022/08/27 01:55:43;;;;;;;13.88;10.60;;;;;;;18.53;65.17;100178.54;3329560;84;21568;-82
2022/08/27 02:00:38;;;;;;;12.73;10.98;;;;;;;18.46;65.37;100179.59;3279455;84;21030;-82
2022/08/27 02:05:31;;;;;;;12.60;11.28;;;;;;;18.41;65.65;100177.52;3315843;85;21049;-82
2022/08/27 02:10:30;;;;;;;11.38;10.03;;;;;;;18.35;65.83;100177.22;3264668;85;21396;-83
2022/08/27 02:15:23;;;;;;;16.15;10.85;;;;;;;18.27;65.83;100175.20;3319834;85;22131;-82
2022/08/27 02:20:16;;;;;;;12.47;10.72;;;;;;;18.19;66.19;100168.81;3328975;84;20974;-82
2022/08/27 02:25:11;;;;;;;11.55;10.30;;;;;;;18.15;66.41;100171.08;3316307;85;21516;-82
2022/08/27 02:30:04;;;;;;;15.08;10.93;;;;;;;18.11;66.54;100169.42;3309706;84;21061;-82
2022/08/27 02:34:56;;;;;;;12.18;10.82;;;;;;;18.06;66.74;100171.30;3241364;85;21045;-82
2022/08/27 02:39:47;;;;;;;14.50;10.78;;;;;;;18.02;66.76;100170.95;3278882;85;23174;-82
2022/08/27 02:44:39;;;;;;;13.32;11.08;;;;;;;17.99;67.10;100167.07;3317956;85;21057;-82
2022/08/27 02:49:30;;;;;;;11.22;9.80;;;;;;;17.90;67.09;100178.23;3297946;85;21014;-83
2022/08/27 02:54:23;;;;;;;11.73;10.63;;;;;;;17.80;67.39;100185.86;3311472;85;20987;-82
2022/08/27 02:59:15;;;;;;;12.03;10.15;;;;;;;17.72;67.74;100183.83;3311399;85;21042;-82
2022/08/27 03:04:06;;;;;;;11.03;9.93;;;;;;;17.67;67.86;100184.37;3225730;85;21035;-82
2022/08/27 03:08:58;;;;;;;11.55;10.40;;;;;;;17.60;67.87;100181.45;3301971;85;20974;-82
2022/08/27 03:13:50;;;;;;;14.40;11.15;;;;;;;17.56;68.00;100182.41;3319098;85;20935;-82
2022/08/27 03:18:41;;;;;;;12.07;9.80;;;;;;;17.52;68.03;100178.52;3309642;85;21460;-82
2022/08/27 03:23:33;;;;;;;12.47;11.38;;;;;;;17.50;68.01;100179.02;3253349;85;20987;-83
2022/08/27 03:28:28;;;;;;;10.95;9.85;;;;;;;17.47;68.16;100179.09;3317261;85;21231;-83
2022/08/27 03:33:21;;;;;;;13.22;10.55;;;;;;;17.42;68.24;100183.57;3256812;85;20975;-82
2022/08/27 03:38:13;;;;;;;11.18;10.13;;;;;;;17.40;68.39;100179.23;3309085;85;21002;-82
2022/08/27 03:43:04;;;;;;;14.40;12.53;;;;;;;17.34;68.34;100178.45;3354474;83;21480;-82
2022/08/27 03:47:56;;;;;;;12.35;11.12;;;;;;;17.26;68.56;100172.92;3295087;85;21018;-82
2022/08/27 03:52:47;;;;;;;14.40;10.98;;;;;;;17.18;68.57;100172.22;3310060;84;20939;-82
2022/08/27 03:57:39;;;;;;;11.20;10.10;;;;;;;17.16;69.01;100173.55;3331053;85;20935;-82
2022/08/27 04:02:30;;;;;;;13.13;11.05;;;;;;;17.15;69.15;100172.70;3321875;85;21026;-82
2022/08/27 04:07:21;;;;;;;11.90;10.90;;;;;;;17.17;69.18;100170.47;3281395;84;20899;-82
2022/08/27 04:12:13;;;;;;;13.68;10.55;;;;;;;17.17;69.13;100169.16;3218356;87;21819;-82
2022/08/27 04:17:04;;;;;;;13.68;10.93;;;;;;;17.18;69.36;100168.28;3188745;88;21162;-82
2022/08/27 04:22:02;;;;;;;14.43;10.48;;;;;;;17.24;69.63;100170.77;3145506;88;21042;-82
2022/08/27 04:26:54;;;;;;;12.50;11.12;;;;;;;17.29;69.61;100163.67;3183803;88;21017;-82
2022/08/27 04:31:45;;;;;;;12.68;11.38;;;;;;;17.34;69.64;100167.08;3185035;87;21140;-82
2022/08/27 04:36:36;;;;;;;12.37;11.05;;;;;;;17.40;69.82;100155.58;3207539;88;21489;-82
2022/08/27 04:41:31;;;;;;;12.50;11.20;;;;;;;17.42;69.93;100167.80;3172543;88;21233;-82
2022/08/27 04:46:24;;;;;;;15.55;11.40;;;;;;;17.48;70.00;100172.92;3183683;88;21015;-82
2022/08/27 04:51:16;;;;;;;14.83;12.30;;;;;;;17.55;70.11;100170.19;3189608;87;21619;-82
2022/08/27 04:56:11;;;;;;;12.05;10.82;;;;;;;17.63;70.17;100176.13;3226491;88;21032;-82
2022/08/27 05:01:02;;;;;;;13.38;11.05;;;;;;;17.69;70.35;100168.14;3209441;88;21034;-82
2022/08/27 05:06:01;;;;;;;13.18;11.85;;;;;;;17.75;70.38;100167.99;3220925;88;22152;-82
2022/08/27 05:10:52;;;;;;;12.35;11.15;;;;;;;17.83;70.63;100180.97;3224926;88;21049;-82
2022/08/27 05:15:45;;;;;;;13.60;12.25;;;;;;;17.88;70.57;100172.14;3208492;88;21019;-82
2022/08/27 05:20:47;;;;;;;13.22;11.48;;;;;;;17.99;70.77;100173.64;3172923;88;21137;-82
2022/08/27 05:25:42;;;;;;;13.85;12.45;;;;;;;18.10;70.96;100175.61;3229875;87;21540;-82
2022/08/27 05:30:40;;;;;;;13.58;12.20;;;;;;;18.21;71.04;100169.64;3201670;88;21231;-82
2022/08/27 05:35:32;;;;;;;14.23;12.80;;;;;;;18.34;71.14;100167.58;3192735;88;20995;-82
2022/08/27 05:40:23;;;;;;;13.95;11.50;;;;;;;18.49;70.99;100171.59;3214306;87;21070;-82
2022/08/27 05:45:15;;;;;;;14.18;12.88;;;;;;;18.61;70.86;100167.34;3180713;87;21613;-83
2022/08/27 05:50:07;;;;;;;17.87;13.10;;;;;;;18.78;70.73;100168.69;3225782;87;21090;-82
2022/08/27 05:54:59;;;;;;;14.03;11.63;;;;;;;18.94;70.67;100170.50;3241140;86;21575;-83
2022/08/27 06:05:03;;;;;;;14.43;12.15;;;;;;;19.22;70.54;100178.55;3330383;84;21500;-82
2022/08/27 06:09:55;;;;;;;14.38;12.75;;;;;;;19.35;70.39;100181.27;3292240;85;20982;-83
2022/08/27 06:14:46;;;;;;;16.25;12.03;;;;;;;19.49;70.22;100179.54;3295630;85;21018;-83
2022/08/27 06:19:37;;;;;;;15.10;12.15;;;;;;;19.72;69.90;100175.39;3312251;85;21111;-83
2022/08/27 06:24:29;;;;;;;16.15;12.43;;;;;;;19.92;69.55;100170.86;3318707;85;21468;-82
2022/08/27 06:29:22;;;;;;;11.75;10.65;;;;;;;20.11;69.13;100158.83;3318082;85;21069;-83
2022/08/27 06:34:14;;;;;;;20.48;12.30;;;;;;;20.30;68.72;100164.84;3313631;84;20987;-83
2022/08/27 06:39:11;;;;;;;15.65;11.33;;;;;;;20.52;68.52;100156.64;3348485;83;21001;-83
2022/08/27 06:44:01;;;;;;;15.35;10.35;;;;;;;20.69;68.14;100169.77;3334676;84;22258;-83
2022/08/27 06:48:57;;;;;;;14.15;10.32;;;;;;;21.60;66.20;100168.77;3283225;85;20947;-82
2022/08/27 06:53:48;;;;;;;11.78;10.23;;;;;;;21.72;65.23;100170.57;3335999;84;20994;-83
2022/08/27 06:58:40;;;;;;;12.20;10.85;;;;;;;21.83;65.14;100167.05;3321376;84;21566;-83
2022/08/27 07:03:32;;;;;;;14.07;10.63;;;;;;;21.99;64.25;100166.00;3288773;84;20994;-83
2022/08/27 07:08:23;;;;;;;15.30;10.00;;;;;;;23.72;62.03;100161.77;3312527;84;21900;-83
2022/08/27 07:13:14;;;;;;;11.38;10.38;;;;;;;25.60;59.60;100168.38;3264863;85;20959;-83
2022/08/27 07:18:05;;;;;;;13.80;9.33;;;;;;;26.27;57.78;100166.06;3332543;84;21033;-83
2022/08/27 07:22:58;;;;;;;10.40;9.30;;;;;;;26.13;56.89;100157.06;3320486;85;21499;-82
2022/08/27 07:27:49;;;;;;;12.07;8.53;;;;;;;25.94;55.82;100151.05;3229407;85;21473;-82
2022/08/27 07:32:43;;;;;;;11.22;8.85;;;;;;;26.33;54.18;100153.25;3269647;85;22672;-82
2022/08/27 07:37:36;;;;;;;12.07;9.20;;;;;;;26.53;53.77;100156.09;3285761;85;20967;-82
2022/08/27 07:47:38;;;;;;;12.93;10.13;;;;;;;29.09;49.61;100145.25;3311700;84;21489;-82
2022/08/27 07:52:29;;;;;;;9.80;8.90;;;;;;;29.94;47.64;100154.01;3270633;85;20983;-80
2022/08/27 07:57:21;;;;;;;10.50;9.38;;;;;;;30.64;47.05;100150.62;3318083;85;21170;-80
2022/08/27 08:02:12;;;;;;;11.95;10.10;;;;;;;29.71;48.10;100156.98;3306844;84;21017;-81
2022/08/27 08:07:03;;;;;;;12.07;9.58;;;;;;;28.84;48.46;100148.28;3338256;83;21453;-81
2022/08/27 08:11:54;;;;;;;16.97;10.78;;;;;;;28.16;48.47;100146.57;3311194;84;20991;-81
2022/08/27 08:16:46;;;;;;;12.88;10.53;;;;;;;27.64;48.89;100146.75;3330374;83;21597;-81
2022/08/27 08:21:39;;;;;;;13.62;10.05;;;;;;;27.43;48.32;100145.44;3253331;85;22747;-81
2022/08/27 08:26:30;;;;;;;10.20;9.20;;;;;;;27.24;48.77;100151.89;3320805;84;21252;-81
2022/08/27 08:31:22;;;;;;;12.60;10.72;;;;;;;27.07;49.61;100149.39;3289382;85;21619;-81
2022/08/27 08:36:16;;;;;;;13.32;10.20;;;;;;;27.20;49.12;100152.56;3352240;83;21196;-80
2022/08/27 08:41:31;;;;;;;12.18;9.75;;;;;;;27.06;49.21;100148.55;3280669;85;21040;-80
2022/08/27 08:46:46;;;;;;;15.72;10.10;;;;;;;27.01;49.21;100157.30;3298875;84;21890;-82
2022/08/27 08:51:40;;;;;;;11.20;9.85;;;;;;;26.97;49.01;100151.30;3331134;85;21483;-83
2022/08/27 08:56:48;;;;;;;11.33;10.13;;;;;;;27.05;48.37;100151.30;3314546;84;21002;-83
2022/08/27 09:01:41;;;;;;;14.13;10.32;;;;;;;27.13;47.58;100150.34;3311343;84;22380;-84
2022/08/27 09:06:53;;;;;;;10.35;9.00;;;;;;;27.57;47.35;100144.09;3319424;84;22357;-83
2022/08/27 09:11:56;;;;;;;12.50;9.35;;;;;;;27.60;47.36;100138.56;3323723;85;21252;-83
2022/08/27 09:16:47;;;;;;;11.60;10.35;;;;;;;27.63;46.69;100137.02;3332382;84;21033;-83
2022/08/27 09:21:51;;;;;;;14.90;10.78;;;;;;;27.67;46.27;100137.67;3311062;85;21083;-83
2022/08/27 09:26:43;;;;;;;10.85;9.80;;;;;;;27.79;46.18;100130.22;3314539;84;20983;-83
2022/08/27 09:31:39;;;;;;;12.82;10.55;;;;;;;28.18;45.60;100128.61;3288482;85;21786;-83
2022/08/27 09:36:29;;;;;;;9.75;8.80;;;;;;;28.21;45.00;100126.23;3317900;83;21793;-83
2022/08/27 09:41:25;;;;;;;10.32;8.80;;;;;;;28.30;44.14;100121.61;3275972;84;21167;-83
2022/08/27 09:46:24;;;;;;;12.50;9.13;;;;;;;28.55;43.86;100118.17;3268433;85;20990;-83
2022/08/27 09:51:41;;;;;;;11.12;7.78;;;;;;;28.72;43.63;100125.04;3294778;85;21001;-83
2022/08/27 09:56:38;;;;;;;11.12;7.50;;;;;;;28.76;43.74;100121.21;3243871;84;21994;-83
2022/08/27 10:01:33;;;;;;;7.70;6.20;;;;;;;28.96;42.48;100123.00;3345785;84;21593;-83
2022/08/27 10:06:28;;;;;;;10.25;7.33;;;;;;;29.48;41.49;100112.64;3295357;85;21683;-84
2022/08/27 10:11:40;;;;;;;10.00;6.42;;;;;;;31.07;38.90;100118.30;3308178;85;25527;-84
2022/08/27 10:17:06;;;;;;;6.62;6.08;;;;;;;34.38;35.22;100113.07;3349221;84;21784;-82
2022/08/27 10:22:21;;;;;;;7.45;6.08;;;;;;;37.12;32.43;100111.86;3312756;85;21034;-83
2022/08/27 10:28:11;;;;;;;8.53;6.33;;;;;;;39.09;30.35;100110.87;3270322;85;21885;-82
2022/08/27 10:33:26;;;;;;;13.75;6.95;;;;;;;40.62;28.43;100108.64;3321843;85;21666;-82
2022/08/27 10:38:25;;;;;;;8.58;6.08;;;;;;;41.60;27.01;100110.27;3341246;83;21069;-82
2022/08/27 10:44:02;;;;;;;7.67;5.92;;;;;;;42.25;25.73;100103.58;3314541;85;21031;-82
2022/08/27 10:49:07;;;;;;;8.08;6.72;;;;;;;42.40;24.24;100096.66;3352142;84;21022;-82
2022/08/27 10:54:13;;;;;;;7.92;6.15;;;;;;;42.55;23.81;100103.42;3321259;84;21523;-82
2022/08/27 10:59:25;;;;;;;9.95;6.45;;;;;;;42.46;23.50;100097.22;3281221;84;21856;-82
2022/08/27 11:04:30;;;;;;;8.25;6.17;;;;;;;42.64;23.19;100095.39;3313230;84;21027;-82
2022/08/27 11:09:48;;;;;;;8.45;6.55;;;;;;;42.51;23.21;100096.67;3293904;84;20935;-82
2022/08/27 11:15:06;;;;;;;8.18;7.25;;;;;;;42.50;22.96;100097.20;3276837;84;21018;-82
2022/08/27 11:20:24;;;;;;;8.08;6.62;;;;;;;42.38;22.72;100091.92;3311324;85;22975;-82
2022/08/27 11:25:41;;;;;;;7.30;5.00;;;;;;;42.31;22.68;100091.86;3312411;85;20955;-82
2022/08/27 11:30:53;;;;;;;9.25;6.30;;;;;;;42.04;20.93;100094.31;3287075;85;21485;-82
2022/08/27 11:36:08;;;;;;;9.65;6.47;;;;;;;41.48;21.01;100095.44;3285193;85;21530;-82
2022/08/27 11:41:25;;;;;;;12.93;7.08;;;;;;;41.31;22.58;100082.02;3261266;85;21313;-83
2022/08/27 11:46:26;;;;;;;11.90;7.17;;;;;;;40.48;22.07;100085.29;3297149;85;21526;-82
2022/08/27 11:51:33;;;;;;;9.15;7.87;;;;;;;39.40;22.88;100088.31;3317901;85;21079;-83
2022/08/27 11:56:36;;;;;;;8.83;7.28;;;;;;;38.56;22.80;100081.55;3308702;85;21012;-83
2022/08/27 12:01:30;;;;;;;13.25;10.58;;;;;;;37.67;23.74;100084.00;3298118;85;20995;-83
2022/08/27 12:06:26;;;;;;;7.62;6.83;;;;;;;37.00;23.56;100077.92;3285314;85;21040;-82
2022/08/27 12:11:37;;;;;;;13.55;9.85;;;;;;;36.56;24.26;100080.17;3273185;85;21932;-83
2022/08/27 12:16:43;;;;;;;11.63;8.28;;;;;;;36.28;25.63;100072.67;3317066;84;21052;-83
2022/08/27 12:22:06;;;;;;;9.90;7.45;;;;;;;35.80;25.30;100068.48;3299767;85;20951;-83
2022/08/27 12:27:24;;;;;;;11.55;9.25;;;;;;;35.81;25.74;100064.78;3306618;84;21006;-83
2022/08/27 12:32:39;;;;;;;10.00;6.92;;;;;;;35.81;25.69;100060.73;3309940;85;21121;-83
2022/08/27 12:37:42;;;;;;;7.90;6.83;;;;;;;35.80;25.41;100053.61;3327997;83;21583;-82
2022/08/27 12:42:33;;;;;;;9.85;7.78;;;;;;;35.05;25.06;100061.79;3298940;85;21038;-81
2022/08/27 12:47:26;;;;;;;10.78;8.55;;;;;;;35.03;25.37;100064.63;3317325;84;21006;-82
2022/08/27 12:52:47;;;;;;;15.15;11.48;;;;;;;34.10;26.03;100062.98;3278819;84;21035;-83
2022/08/27 12:58:13;;;;;;;13.13;8.70;;;;;;;33.24;26.83;100061.32;3307452;84;21667;-83
2022/08/27 13:03:15;;;;;;;13.65;9.35;;;;;;;32.39;27.61;100056.97;3325651;84;21976;-83
2022/08/27 13:08:27;;;;;;;26.05;15.18;;;;;;;32.18;27.95;100060.52;3289882;85;21086;-82
2022/08/27 13:13:22;;;;;;;12.45;8.65;;;;;;;31.65;28.49;100060.41;3314032;84;21052;-83
2022/08/27 13:18:15;;;;;;;8.98;8.08;;;;;;;31.19;28.71;100061.42;3275327;84;21009;-83
2022/08/27 13:23:16;;;;;;;9.33;7.15;;;;;;;30.95;29.03;100057.03;3314440;84;21624;-83
2022/08/27 13:28:14;;;;;;;13.45;8.55;;;;;;;31.60;28.82;100043.81;3310737;84;22120;-83
2022/08/27 13:33:11;;;;;;;7.70;6.97;;;;;;;32.49;27.80;100054.70;3306157;84;21492;-83
2022/08/27 13:38:04;;;;;;;11.03;8.25;;;;;;;32.88;27.98;100051.44;3280164;84;21014;-83
2022/08/27 13:43:03;;;;;;;11.05;9.20;;;;;;;33.35;27.17;100055.81;3319155;84;21671;-83
2022/08/27 13:47:54;;;;;;;10.55;9.58;;;;;;;33.61;26.99;100040.51;3305763;85;21030;-82
2022/08/27 13:57:56;;;;;;;9.25;7.53;;;;;;;33.46;26.00;100047.27;3299852;84;21040;-83
2022/08/27 14:02:48;;;;;;;12.80;7.58;;;;;;;33.04;26.22;100045.05;3241404;84;21323;-83
2022/08/27 14:07:47;;;;;;;11.65;7.28;;;;;;;33.37;25.83;100040.36;3311516;84;20962;-82
2022/08/27 14:12:40;;;;;;;9.90;7.58;;;;;;;33.57;25.48;100040.41;3318276;84;21291;-83
2022/08/27 14:17:37;;;;;;;10.20;8.18;;;;;;;32.93;26.02;100047.84;3267731;85;21834;-82
2022/08/27 14:22:28;;;;;;;7.83;7.03;;;;;;;32.28;26.86;100043.09;3308271;85;21006;-83
2022/08/27 14:27:19;;;;;;;10.03;7.20;;;;;;;31.79;27.53;100044.01;3260612;84;21026;-82
2022/08/27 14:32:11;;;;;;;10.05;7.25;;;;;;;31.33;28.05;100041.87;3304462;84;21569;-82
2022/08/27 14:37:03;;;;;;;9.50;7.30;;;;;;;30.97;28.65;100041.66;3299099;84;20978;-82
2022/08/27 14:41:54;;;;;;;7.90;7.03;;;;;;;31.37;29.07;100038.45;3246406;84;22207;-82
2022/08/27 14:46:46;;;;;;;10.03;7.25;;;;;;;31.92;28.24;100031.23;3311696;84;20947;-82
2022/08/27 14:51:41;;;;;;;12.93;8.25;;;;;;;32.22;26.97;100040.44;3307798;84;22187;-82
2022/08/27 14:56:32;;;;;;;;;;;;;;;31.97;27.71;100035.40;3307431;84;21237;-82
2022/08/27 15:01:25;;;;;;;8.83;7.05;;;;;;;31.64;28.63;100035.86;3353048;83;20245;-82
2022/08/27 15:06:21;;;;;;;8.85;7.03;;;;;;;30.99;29.58;100035.67;3323036;84;21575;-82
2022/08/27 15:11:15;;;;;;;;;;;;;;;30.68;30.37;100036.73;3264257;85;20943;-82
2022/08/27 15:16:06;;;;;;;8.93;6.42;;;;;;;30.39;30.86;100035.82;3283375;84;20123;-82
2022/08/27 15:21:01;;;;;;;11.68;7.15;;;;;;;30.45;31.05;100034.98;3307389;85;21030;-82
2022/08/27 15:25:52;;;;;;;10.32;6.08;;;;;;;30.62;31.79;100032.31;3319321;84;21022;-83
2022/08/27 15:30:43;;;;;;;11.73;6.60;;;;;;;30.81;31.70;100035.77;3326675;84;21182;-83
2022/08/27 15:35:35;;;;;;;12.15;7.20;;;;;;;30.87;31.10;100029.91;3318465;84;21280;-82
2022/08/27 15:40:31;;;;;;;14.50;7.33;;;;;;;30.96;31.17;100023.83;3290566;84;21013;-82
2022/08/27 15:45:22;;;;;;;9.95;7.10;;;;;;;30.88;31.03;100030.28;3292670;84;22391;-82
2022/08/27 15:50:14;;;;;;;10.95;7.22;;;;;;;30.55;31.42;100030.63;3263677;84;20981;-82
2022/08/27 15:55:24;;;;;;;9.15;6.33;;;;;;;30.56;31.70;100022.92;3260889;84;21495;-82
2022/08/27 16:00:16;;;;;;;11.78;5.28;;;;;;;30.55;31.42;100026.10;3322405;84;21021;-82
2022/08/27 16:05:09;;;;;;;7.45;4.92;;;;;;;30.56;30.58;100028.29;3291983;85;21009;-82
2022/08/27 16:10:02;;;;;;;5.50;5.00;;;;;;;30.51;30.71;100023.77;3309346;84;21591;-82
2022/08/27 16:14:54;;;;;;;7.33;4.62;;;;;;;30.39;31.69;100021.56;3316261;84;21153;-82
2022/08/27 16:19:46;;;;;;;12.85;5.10;;;;;;;30.22;32.36;100021.47;3284663;84;21165;-82
2022/08/27 16:24:37;;;;;;;7.50;4.37;;;;;;;30.02;32.88;100022.50;3287033;84;20977;-82
2022/08/27 16:29:28;;;;;;;7.90;4.30;;;;;;;29.82;32.78;100024.50;3308306;84;20958;-83
2022/08/27 16:34:24;;;;;;;11.25;4.37;;;;;;;29.60;32.47;100015.34;3302999;84;20946;-83
2022/08/27 16:39:15;;;;;;;7.17;4.00;;;;;;;29.40;33.38;100019.95;3308502;84;21566;-82
2022/08/27 16:44:06;;;;;;;9.70;4.37;;;;;;;29.17;33.57;100016.27;3318129;84;21238;-83
2022/08/27 16:54:10;;;;;;;6.40;3.92;;;;;;;28.60;34.56;100021.58;3301794;85;21046;-83
2022/08/27 16:59:03;;;;;;;9.45;5.17;;;;;;;28.26;35.02;100023.86;3329429;84;20952;-82
2022/08/27 17:03:58;;;;;;;7.90;4.30;;;;;;;27.92;35.29;100026.16;3262974;84;21048;-83
2022/08/27 17:08:49;;;;;;;6.10;3.60;;;;;;;27.65;35.48;100029.66;3321252;84;21091;-83
2022/08/27 17:13:41;;;;;;;7.80;4.13;;;;;;;27.37;36.30;100030.09;3306628;84;21196;-82
2022/08/27 17:18:33;;;;;;;6.92;4.30;;;;;;;27.12;36.50;100032.58;3255393;84;21011;-82
2022/08/27 17:23:38;;;;;;;9.40;4.50;;;;;;;26.87;36.54;100042.11;3312998;84;21583;-83
2022/08/27 17:28:30;;;;;;;10.13;4.70;;;;;;;26.61;36.81;100051.23;3323663;84;21018;-82
2022/08/27 17:33:32;;;;;;;14.05;4.97;;;;;;;26.35;37.59;100054.57;3279402;84;21402;-82
2022/08/27 17:38:23;;;;;;;12.25;5.10;;;;;;;26.12;37.90;100062.09;3312672;84;21053;-82
2022/08/27 17:43:14;;;;;;;6.75;4.17;;;;;;;25.91;38.76;100063.30;3230069;84;21025;-83
2022/08/27 17:48:05;;;;;;;15.32;5.03;;;;;;;25.68;39.16;100065.45;3314294;84;21010;-82
2022/08/27 17:52:57;;;;;;;7.85;3.95;;;;;;;25.49;39.67;100065.16;3283322;84;21101;-82
2022/08/27 17:57:50;;;;;;;6.87;4.60;;;;;;;25.29;39.80;100081.38;3310291;84;22089;-82
2022/08/27 18:02:46;;;;;;;10.70;3.98;;;;;;;25.09;39.79;100084.61;3266803;85;21033;-82
2022/08/27 18:07:37;;;;;;;;;;;;;;;24.90;40.63;100086.53;3269127;84;20934;-82
2022/08/27 18:12:28;;;;;;;6.53;4.12;;;;;;;24.72;40.82;100089.20;3279082;84;20267;-82
2022/08/27 18:17:19;;;;;;;8.48;4.03;;;;;;;24.56;41.22;100093.59;3270613;84;21001;-82
2022/08/27 18:22:11;;;;;;;6.55;3.95;;;;;;;24.42;41.97;100098.23;3246164;84;21855;-82
2022/08/27 18:27:02;;;;;;;10.08;4.20;;;;;;;24.29;42.05;100099.33;3209699;84;21539;-82
2022/08/27 18:31:54;;;;;;;8.58;4.28;;;;;;;24.12;42.25;100105.45;3220808;84;21497;-82
2022/08/27 18:36:47;;;;;;;6.53;4.47;;;;;;;23.98;42.74;100107.48;3270678;84;20942;-83
2022/08/27 18:41:38;;;;;;;11.33;5.95;;;;;;;23.83;42.97;100108.20;3259438;84;20943;-82
2022/08/27 18:46:29;;;;;;;11.15;5.90;;;;;;;23.69;43.26;100121.23;3267999;84;21602;-82
2022/08/27 18:51:23;;;;;;;19.55;6.80;;;;;;;23.56;43.58;100127.59;3245129;84;20997;-83
2022/08/27 18:56:18;;;;;;;20.85;6.17;;;;;;;23.40;43.85;100127.43;3279546;84;20977;-83
2022/08/27 19:01:14;;;;;;;21.33;6.30;;;;;;;23.27;44.05;100131.55;3276037;85;20970;-83
2022/08/27 19:06:05;;;;;;;13.45;5.12;;;;;;;23.12;44.53;100140.59;3290829;84;21084;-82
2022/08/27 19:10:57;;;;;;;14.35;4.62;;;;;;;22.99;44.79;100146.02;3310821;84;22485;-83
2022/08/27 19:15:59;;;;;;;14.28;5.97;;;;;;;22.90;45.21;100149.07;3325403;84;20946;-82
2022/08/27 19:20:51;;;;;;;9.53;4.47;;;;;;;22.77;45.79;100149.59;3305838;84;21456;-83
2022/08/27 19:25:47;;;;;;;11.65;5.05;;;;;;;22.64;46.05;100153.67;3241022;84;21017;-83
2022/08/27 19:30:39;;;;;;;9.58;4.80;;;;;;;22.51;46.81;100153.33;3294634;84;21073;-82
2022/08/27 19:35:30;;;;;;;9.13;4.87;;;;;;;22.40;47.13;100155.09;3277904;85;21489;-82
2022/08/27 19:40:21;;;;;;;7.47;5.20;;;;;;;22.28;47.42;100148.97;3299652;84;20947;-82
2022/08/27 19:45:13;;;;;;;8.13;5.03;;;;;;;22.17;47.91;100151.17;3291654;85;21144;-83
2022/08/27 19:50:04;;;;;;;7.70;4.45;;;;;;;22.05;47.77;100150.74;3235370;84;21009;-83
2022/08/27 19:54:56;;;;;;;10.70;5.30;;;;;;;21.92;48.07;100156.57;3311492;84;21056;-83
2022/08/27 19:59:47;;;;;;;10.53;4.95;;;;;;;21.81;48.39;100151.70;3314728;84;22392;-83
2022/08/27 20:04:39;;;;;;;8.03;4.97;;;;;;;21.69;48.65;100156.98;3301120;84;20997;-82
2022/08/27 20:09:30;;;;;;;6.65;4.05;;;;;;;21.61;48.99;100161.72;3303687;84;21134;-82
2022/08/27 20:14:21;;;;;;;6.50;4.45;;;;;;;21.52;49.05;100158.95;3310690;84;20962;-82
2022/08/27 20:19:13;;;;;;;6.67;4.87;;;;;;;21.43;49.21;100159.27;3284618;84;22375;-82
2022/08/27 20:24:05;;;;;;;7.95;5.75;;;;;;;21.34;49.39;100168.39;3258157;84;23452;-82
2022/08/27 20:28:58;;;;;;;14.65;5.45;;;;;;;21.25;49.81;100168.27;3291433;84;21006;-82
2022/08/27 20:33:49;;;;;;;14.10;7.17;;;;;;;21.16;49.78;100167.28;3232160;85;21621;-82
2022/08/27 20:38:41;;;;;;;17.07;5.45;;;;;;;21.06;50.12;100172.48;3289786;84;21041;-82
2022/08/27 20:43:34;;;;;;;15.88;5.92;;;;;;;20.99;50.56;100167.00;3275055;85;21480;-82
2022/08/27 20:48:27;;;;;;;10.75;5.97;;;;;;;20.91;50.49;100164.17;3241613;85;21719;-82
2022/08/27 20:53:18;;;;;;;8.98;5.03;;;;;;;20.82;50.84;100167.56;3248668;85;21604;-82
2022/08/27 21:03:19;;;;;;;10.08;5.83;;;;;;;20.67;51.76;100163.20;3298059;84;21112;-82
2022/08/27 21:08:10;;;;;;;9.08;5.70;;;;;;;20.57;51.79;100160.45;3258375;84;21603;-82
2022/08/27 21:13:03;;;;;;;9.73;5.62;;;;;;;20.50;51.96;100162.43;3293601;84;21523;-82
2022/08/27 21:17:55;;;;;;;10.58;5.45;;;;;;;20.43;52.47;100154.77;3265769;84;21083;-82
2022/08/27 21:22:46;;;;;;;11.45;5.25;;;;;;;20.32;52.38;100155.13;3309306;84;21041;-82
2022/08/27 21:27:38;;;;;;;10.38;6.42;;;;;;;20.26;52.75;100152.66;3271937;85;20999;-82
2022/08/27 21:32:29;;;;;;;9.15;5.40;;;;;;;20.19;52.89;100154.19;3311523;84;21032;-82
2022/08/27 21:37:21;;;;;;;9.53;5.80;;;;;;;20.09;53.39;100148.78;3304834;85;21142;-82
2022/08/27 21:42:14;;;;;;;7.83;5.87;;;;;;;20.02;53.38;100152.53;3324834;84;20967;-82
2022/08/27 21:47:06;;;;;;;9.10;6.33;;;;;;;19.95;53.56;100154.95;3305199;85;21552;-82
2022/08/27 21:52:02;;;;;;;10.00;5.87;;;;;;;19.88;53.72;100153.41;3324142;84;20993;-82
2022/08/27 21:56:52;;;;;;;6.62;5.92;;;;;;;19.78;54.03;100147.09;3327351;85;20986;-82
2022/08/27 22:01:44;;;;;;;10.75;6.67;;;;;;;19.74;54.12;100146.76;3256450;85;22419;-82
2022/08/27 22:06:35;;;;;;;7.92;7.12;;;;;;;19.67;54.44;100144.33;3328938;84;20986;-83
2022/08/27 22:11:27;;;;;;;8.28;6.50;;;;;;;19.58;54.42;100149.41;3300837;85;20966;-83
2022/08/27 22:16:18;;;;;;;8.73;6.45;;;;;;;19.51;54.69;100142.59;3304031;84;22166;-83
2022/08/27 22:21:09;;;;;;;8.05;6.45;;;;;;;19.41;54.82;100138.91;3321709;84;20998;-83
2022/08/27 22:26:02;;;;;;;9.00;6.58;;;;;;;19.35;55.08;100131.63;3289445;85;21097;-82
2022/08/27 22:30:53;;;;;;;10.43;6.05;;;;;;;19.31;55.17;100137.44;3297540;85;20974;-83
2022/08/27 22:35:44;;;;;;;8.55;5.42;;;;;;;19.23;55.32;100136.80;3282946;84;20987;-83
2022/08/27 22:40:35;;;;;;;8.65;6.42;;;;;;;19.15;55.38;100134.82;3324101;84;21042;-83
2022/08/27 22:45:28;;;;;;;9.20;6.12;;;;;;;19.09;55.60;100136.33;3306336;84;21655;-83
2022/08/27 22:50:20;;;;;;;10.25;7.55;;;;;;;19.02;55.75;100131.20;3339377;84;22028;-83
2022/08/27 22:55:17;;;;;;;8.20;6.92;;;;;;;18.98;55.98;100135.30;3318740;83;21559;-83
2022/08/27 23:00:17;;;;;;;10.38;7.08;;;;;;;18.92;55.89;100133.66;3303442;84;22348;-83
2022/08/27 23:05:13;;;;;;;11.78;7.55;;;;;;;18.83;56.18;100123.38;3334618;84;21041;-83
2022/08/27 23:10:07;;;;;;;7.78;6.97;;;;;;;18.77;56.39;100123.06;3243578;84;21028;-83
2022/08/27 23:14:58;;;;;;;8.93;7.20;;;;;;;18.73;56.63;100123.20;3282864;84;21061;-83